sensor_id;sensor_type;location;lat;lon;timestamp;pressure;altitude;pressure_sealevel;temperature;humidity
72465;BME280;60471;52.150;4.508;2023-03-01T00:01:22;103017.06;;;3.33;71.00
72465;BME280;60471;52.150;4.508;2023-03-01T00:03:51;103018.06;;;3.39;71.37
72465;BME280;60471;52.150;4.508;2023-03-01T00:06:19;103012.16;;;3.51;71.20
72465;BME280;60471;52.150;4.508;2023-03-01T00:08:46;103012.16;;;3.51;71.48
72465;BME280;60471;52.150;4.508;2023-03-01T00:11:23;103014.78;;;3.51;71.79
72465;BME280;60471;52.150;4.508;2023-03-01T00:13:54;103010.31;;;3.45;72.13
72465;BME280;60471;52.150;4.508;2023-03-01T00:16:36;103008.34;;;3.32;72.50
72465;BME280;60471;52.150;4.508;2023-03-01T00:19:06;103002.28;;;3.33;73.17
72465;BME280;60471;52.150;4.508;2023-03-01T00:21:33;103012.88;;;3.41;73.29
72465;BME280;60471;52.150;4.508;2023-03-01T00:24:02;103007.59;;;3.38;73.69
72465;BME280;60471;52.150;4.508;2023-03-01T00:26:29;103005.84;;;3.37;73.84
72465;BME280;60471;52.150;4.508;2023-03-01T00:28:57;102992.53;;;3.23;74.50
72465;BME280;60471;52.150;4.508;2023-03-01T00:31:29;102995.31;;;3.32;74.83
72465;BME280;60471;52.150;4.508;2023-03-01T00:33:59;102985.72;;;3.30;74.52
72465;BME280;60471;52.150;4.508;2023-03-01T00:36:34;102991.84;;;3.33;74.73
72465;BME280;60471;52.150;4.508;2023-03-01T00:39:04;102995.41;;;3.37;74.94
72465;BME280;60471;52.150;4.508;2023-03-01T00:41:33;102993.84;;;3.48;74.71
72465;BME280;60471;52.150;4.508;2023-03-01T00:44:00;102990.38;;;3.49;74.44
72465;BME280;60471;52.150;4.508;2023-03-01T00:46:27;102988.31;;;3.30;74.88
72465;BME280;60471;52.150;4.508;2023-03-01T00:48:53;103000.53;;;3.32;75.37
72465;BME280;60471;52.150;4.508;2023-03-01T00:51:23;102994.38;;;3.27;75.59
72465;BME280;60471;52.150;4.508;2023-03-01T00:53:53;102989.09;;;3.24;75.78
72465;BME280;60471;52.150;4.508;2023-03-01T00:56:23;102996.84;;;3.19;76.10
72465;BME280;60471;52.150;4.508;2023-03-01T00:58:49;102991.75;;;3.26;75.92
72465;BME280;60471;52.150;4.508;2023-03-01T01:01:22;102986.41;;;3.19;76.11
72465;BME280;60471;52.150;4.508;2023-03-01T01:04:00;102982.94;;;3.20;76.16
72465;BME280;60471;52.150;4.508;2023-03-01T01:06:40;102980.34;;;3.20;76.68
72465;BME280;60471;52.150;4.508;2023-03-01T01:09:10;102987.16;;;3.12;76.76
72465;BME280;60471;52.150;4.508;2023-03-01T01:11:50;102985.44;;;3.14;76.76
72465;BME280;60471;52.150;4.508;2023-03-01T01:14:18;102978.41;;;3.10;76.76
72465;BME280;60471;52.150;4.508;2023-03-01T01:16:45;102980.00;;;3.02;77.21
72465;BME280;60471;52.150;4.508;2023-03-01T01:19:12;102980.09;;;3.07;77.25
72465;BME280;60471;52.150;4.508;2023-03-01T01:21:39;102980.09;;;3.05;77.46
72465;BME280;60471;52.150;4.508;2023-03-01T01:24:07;102983.56;;;3.06;77.53
72465;BME280;60471;52.150;4.508;2023-03-01T01:26:34;102974.19;;;3.15;77.31
72465;BME280;60471;52.150;4.508;2023-03-01T01:29:02;102969.91;;;3.20;77.52
72465;BME280;60471;52.150;4.508;2023-03-01T01:31:30;102975.09;;;3.19;77.47
72465;BME280;60471;52.150;4.508;2023-03-01T01:34:00;102967.19;;;3.14;77.39
72465;BME280;60471;52.150;4.508;2023-03-01T01:36:29;102963.66;;;3.11;77.33
72465;BME280;60471;52.150;4.508;2023-03-01T01:38:55;102958.56;;;3.17;77.65
72465;BME280;60471;52.150;4.508;2023-03-01T01:41:23;102955.28;;;3.30;77.26
72465;BME280;60471;52.150;4.508;2023-03-01T01:44:21;102944.53;;;3.12;76.95
72465;BME280;60471;52.150;4.508;2023-03-01T01:55:09;102926.28;;;3.12;76.98
72465;BME280;60471;52.150;4.508;2023-03-01T01:57:44;102925.50;;;3.17;76.43
72465;BME280;60471;52.150;4.508;2023-03-01T02:00:19;102923.59;;;3.06;76.83
72465;BME280;60471;52.150;4.508;2023-03-01T02:02:49;102928.00;;;3.10;76.89
72465;BME280;60471;52.150;4.508;2023-03-01T02:05:26;102930.53;;;3.05;77.54
72465;BME280;60471;52.150;4.508;2023-03-01T02:08:00;102923.44;;;2.97;77.37
72465;BME280;60471;52.150;4.508;2023-03-01T02:10:27;102926.00;;;2.95;77.40
72465;BME280;60471;52.150;4.508;2023-03-01T02:12:55;102931.22;;;2.94;77.72
72465;BME280;60471;52.150;4.508;2023-03-01T02:15:23;102913.72;;;2.89;77.46
72465;BME280;60471;52.150;4.508;2023-03-01T02:17:50;102924.94;;;2.84;77.81
72465;BME280;60471;52.150;4.508;2023-03-01T02:23:18;102923.38;;;2.94;78.53
72465;BME280;60471;52.150;4.508;2023-03-01T02:26:19;102912.09;;;2.95;77.50
72465;BME280;60471;52.150;4.508;2023-03-01T02:28:46;102918.13;;;2.92;77.86
72465;BME280;60471;52.150;4.508;2023-03-01T02:31:19;102922.63;;;3.01;77.35
72465;BME280;60471;52.150;4.508;2023-03-01T02:34:06;102919.53;;;2.73;78.39
72465;BME280;60471;52.150;4.508;2023-03-01T02:36:37;102918.03;;;2.86;78.02
72465;BME280;60471;52.150;4.508;2023-03-01T02:39:08;102914.38;;;2.76;77.91
72465;BME280;60471;52.150;4.508;2023-03-01T02:41:47;102913.28;;;2.64;78.61
72465;BME280;60471;52.150;4.508;2023-03-01T02:44:17;102908.16;;;2.68;78.85
72465;BME280;60471;52.150;4.508;2023-03-01T02:46:49;102909.88;;;2.68;79.29
72465;BME280;60471;52.150;4.508;2023-03-01T02:49:25;102906.50;;;2.72;78.87
72465;BME280;60471;52.150;4.508;2023-03-01T02:52:16;102910.97;;;2.80;79.13
72465;BME280;60471;52.150;4.508;2023-03-01T02:55:20;102902.44;;;2.89;78.46
72465;BME280;60471;52.150;4.508;2023-03-01T02:57:47;102898.94;;;2.88;78.47
72465;BME280;60471;52.150;4.508;2023-03-01T03:00:24;102896.44;;;2.93;78.02
72465;BME280;60471;52.150;4.508;2023-03-01T03:02:54;102891.81;;;2.78;77.93
72465;BME280;60471;52.150;4.508;2023-03-01T03:05:25;102892.69;;;2.79;78.22
72465;BME280;60471;52.150;4.508;2023-03-01T03:07:53;102890.06;;;2.77;77.92
72465;BME280;60471;52.150;4.508;2023-03-01T03:10:24;102886.03;;;2.46;78.78
72465;BME280;60471;52.150;4.508;2023-03-01T03:12:56;102877.50;;;2.55;79.46
72465;BME280;60471;52.150;4.508;2023-03-01T03:15:25;102876.69;;;2.59;79.14
72465;BME280;60471;52.150;4.508;2023-03-01T03:17:53;102881.13;;;2.63;79.19
72465;BME280;60471;52.150;4.508;2023-03-01T03:20:24;102880.00;;;2.49;79.30
72465;BME280;60471;52.150;4.508;2023-03-01T03:22:53;102880.94;;;2.52;79.95
72465;BME280;60471;52.150;4.508;2023-03-01T03:25:22;102877.50;;;2.55;79.67
72465;BME280;60471;52.150;4.508;2023-03-01T03:27:50;102866.06;;;2.47;80.04
72465;BME280;60471;52.150;4.508;2023-03-01T03:30:24;102872.34;;;2.58;80.35
72465;BME280;60471;52.150;4.508;2023-03-01T03:32:53;102873.34;;;2.65;80.10
72465;BME280;60471;52.150;4.508;2023-03-01T03:35:34;102877.75;;;2.69;80.37
72465;BME280;60471;52.150;4.508;2023-03-01T03:38:07;102868.28;;;2.72;79.71
72465;BME280;60471;52.150;4.508;2023-03-01T03:40:43;102874.16;;;2.60;79.13
72465;BME280;60471;52.150;4.508;2023-03-01T03:43:16;102874.88;;;2.53;80.28
72465;BME280;60471;52.150;4.508;2023-03-01T03:45:46;102869.00;;;2.65;80.00
72465;BME280;60471;52.150;4.508;2023-03-01T03:48:13;102874.34;;;2.73;79.96
72465;BME280;60471;52.150;4.508;2023-03-01T03:50:40;102864.47;;;2.53;80.06
72465;BME280;60471;52.150;4.508;2023-03-01T03:53:09;102865.47;;;2.61;80.37
72465;BME280;60471;52.150;4.508;2023-03-01T03:55:37;102863.94;;;2.73;79.92
72465;BME280;60471;52.150;4.508;2023-03-01T03:58:07;102868.34;;;2.77;79.16
72465;BME280;60471;52.150;4.508;2023-03-01T04:00:43;102862.00;;;2.61;79.02
72465;BME280;60471;52.150;4.508;2023-03-01T04:03:12;102860.03;;;2.49;79.68
72465;BME280;60471;52.150;4.508;2023-03-01T04:05:42;102861.28;;;2.71;79.44
72465;BME280;60471;52.150;4.508;2023-03-01T04:08:09;102863.66;;;2.59;79.65
72465;BME280;60471;52.150;4.508;2023-03-01T04:10:38;102866.94;;;2.47;80.29
72465;BME280;60471;52.150;4.508;2023-03-01T04:13:09;102867.97;;;2.57;80.54
72465;BME280;60471;52.150;4.508;2023-03-01T04:15:37;102873.03;;;2.48;80.22
72465;BME280;60471;52.150;4.508;2023-03-01T04:18:04;102865.41;;;2.58;80.36
72465;BME280;60471;52.150;4.508;2023-03-01T04:20:34;102862.59;;;2.46;79.57
72465;BME280;60471;52.150;4.508;2023-03-01T04:23:09;102855.38;;;2.31;80.60
72465;BME280;60471;52.150;4.508;2023-03-01T04:25:39;102852.25;;;2.51;80.76
72465;BME280;60471;52.150;4.508;2023-03-01T04:28:09;102850.44;;;2.47;80.79
72465;BME280;60471;52.150;4.508;2023-03-01T04:30:37;102857.56;;;2.57;80.24
72465;BME280;60471;52.150;4.508;2023-03-01T04:33:08;102856.28;;;2.33;80.49
72465;BME280;60471;52.150;4.508;2023-03-01T04:35:36;102854.59;;;2.37;80.50
72465;BME280;60471;52.150;4.508;2023-03-01T04:38:03;102850.19;;;2.33;80.88
72465;BME280;60471;52.150;4.508;2023-03-01T04:40:31;102849.56;;;2.46;80.48
72465;BME280;60471;52.150;4.508;2023-03-01T04:42:57;102841.69;;;2.43;80.33
72465;BME280;60471;52.150;4.508;2023-03-01T04:45:24;102850.13;;;2.30;80.04
72465;BME280;60471;52.150;4.508;2023-03-01T04:47:50;102849.03;;;2.17;80.33
72465;BME280;60471;52.150;4.508;2023-03-01T04:50:18;102843.84;;;2.17;80.18
72465;BME280;60471;52.150;4.508;2023-03-01T04:52:47;102837.41;;;2.00;80.24
72465;BME280;60471;52.150;4.508;2023-03-01T04:55:13;102842.72;;;2.06;80.44
72465;BME280;60471;52.150;4.508;2023-03-01T04:57:42;102833.97;;;2.01;80.41
72465;BME280;60471;52.150;4.508;2023-03-01T05:00:11;102823.38;;;1.93;80.47
72465;BME280;60471;52.150;4.508;2023-03-01T05:02:54;102825.91;;;1.89;80.50
72465;BME280;60471;52.150;4.508;2023-03-01T05:05:35;102824.47;;;2.04;80.35
72465;BME280;60471;52.150;4.508;2023-03-01T05:08:06;102823.16;;;1.83;79.78
72465;BME280;60471;52.150;4.508;2023-03-01T05:10:35;102830.41;;;1.96;80.16
72465;BME280;60471;52.150;4.508;2023-03-01T05:13:02;102826.00;;;1.95;79.56
72465;BME280;60471;52.150;4.508;2023-03-01T05:15:30;102823.41;;;1.95;79.69
72465;BME280;60471;52.150;4.508;2023-03-01T05:17:59;102827.66;;;1.90;79.26
72465;BME280;60471;52.150;4.508;2023-03-01T05:20:26;102827.69;;;1.91;78.96
72465;BME280;60471;52.150;4.508;2023-03-01T05:22:59;102826.06;;;1.96;79.07
72465;BME280;60471;52.150;4.508;2023-03-01T05:25:26;102822.47;;;1.91;79.55
72465;BME280;60471;52.150;4.508;2023-03-01T05:27:52;102814.66;;;1.90;79.34
72465;BME280;60471;52.150;4.508;2023-03-01T05:30:19;102815.59;;;1.95;79.42
72465;BME280;60471;52.150;4.508;2023-03-01T05:32:47;102803.34;;;1.88;79.78
72465;BME280;60471;52.150;4.508;2023-03-01T05:35:17;102798.91;;;1.84;79.78
72465;BME280;60471;52.150;4.508;2023-03-01T05:37:45;102797.34;;;1.93;80.12
72465;BME280;60471;52.150;4.508;2023-03-01T05:40:17;102785.00;;;1.83;80.35
72465;BME280;60471;52.150;4.508;2023-03-01T05:42:48;102787.47;;;1.76;80.43
72465;BME280;60471;52.150;4.508;2023-03-01T05:45:17;102796.06;;;1.71;80.35
72465;BME280;60471;52.150;4.508;2023-03-01T05:47:45;102793.31;;;1.64;80.91
72465;BME280;60471;52.150;4.508;2023-03-01T05:50:16;102784.63;;;1.63;81.24
72465;BME280;60471;52.150;4.508;2023-03-01T05:52:49;102788.00;;;1.59;80.91
72465;BME280;60471;52.150;4.508;2023-03-01T05:55:19;102788.13;;;1.64;81.00
72465;BME280;60471;52.150;4.508;2023-03-01T05:57:47;102788.06;;;1.62;80.98
72465;BME280;60471;52.150;4.508;2023-03-01T06:00:15;102777.81;;;1.70;80.47
72465;BME280;60471;52.150;4.508;2023-03-01T06:02:42;102772.59;;;1.70;80.77
72465;BME280;60471;52.150;4.508;2023-03-01T06:05:10;102776.91;;;1.68;80.87
72465;BME280;60471;52.150;4.508;2023-03-01T06:07:37;102777.91;;;1.74;80.46
72465;BME280;60471;52.150;4.508;2023-03-01T06:10:05;102771.56;;;1.62;80.22
72465;BME280;60471;52.150;4.508;2023-03-01T06:12:33;102770.84;;;1.67;80.65
72465;BME280;60471;52.150;4.508;2023-03-01T06:15:00;102777.00;;;1.72;80.27
72465;BME280;60471;52.150;4.508;2023-03-01T06:17:32;102783.63;;;1.57;80.67
72465;BME280;60471;52.150;4.508;2023-03-01T06:20:04;102784.50;;;1.57;80.34
72465;BME280;60471;52.150;4.508;2023-03-01T06:22:31;102775.97;;;1.64;80.09
72465;BME280;60471;52.150;4.508;2023-03-01T06:24:58;102775.19;;;1.68;79.97
72465;BME280;60471;52.150;4.508;2023-03-01T06:27:24;102782.41;;;1.83;79.51
72465;BME280;60471;52.150;4.508;2023-03-01T06:29:50;102781.81;;;1.96;79.55
72465;BME280;60471;52.150;4.508;2023-03-01T06:32:16;102779.97;;;1.92;79.85
72465;BME280;60471;52.150;4.508;2023-03-01T06:34:43;102780.09;;;1.98;79.92
72465;BME280;60471;52.150;4.508;2023-03-01T06:37:09;102777.47;;;1.97;79.47
72465;BME280;60471;52.150;4.508;2023-03-01T06:39:36;102775.00;;;2.04;79.02
72465;BME280;60471;52.150;4.508;2023-03-01T06:42:02;102769.66;;;1.95;79.12
72465;BME280;60471;52.150;4.508;2023-03-01T06:44:29;102781.00;;;2.00;79.00
72465;BME280;60471;52.150;4.508;2023-03-01T06:46:55;102779.16;;;1.95;78.39
72465;BME280;60471;52.150;4.508;2023-03-01T06:49:21;102773.91;;;1.92;79.03
72465;BME280;60471;52.150;4.508;2023-03-01T06:51:48;102775.13;;;2.11;78.58
72465;BME280;60471;52.150;4.508;2023-03-01T06:54:14;102778.78;;;2.20;78.17
72465;BME280;60471;52.150;4.508;2023-03-01T06:56:40;102783.28;;;2.29;77.80
72465;BME280;60471;52.150;4.508;2023-03-01T06:59:06;102787.66;;;2.31;77.78
72465;BME280;60471;52.150;4.508;2023-03-01T07:01:32;102790.31;;;2.35;77.91
72465;BME280;60471;52.150;4.508;2023-03-01T07:03:59;102789.59;;;2.43;76.99
72465;BME280;60471;52.150;4.508;2023-03-01T07:06:25;102788.00;;;2.51;77.55
72465;BME280;60471;52.150;4.508;2023-03-01T07:08:51;102789.72;;;2.51;77.80
72465;BME280;60471;52.150;4.508;2023-03-01T07:11:17;102782.97;;;2.62;77.80
72465;BME280;60471;52.150;4.508;2023-03-01T07:13:44;102777.78;;;2.65;76.86
72465;BME280;60471;52.150;4.508;2023-03-01T07:16:10;102776.75;;;2.55;76.83
72465;BME280;60471;52.150;4.508;2023-03-01T07:18:36;102777.50;;;2.48;76.99
72465;BME280;60471;52.150;4.508;2023-03-01T07:21:11;102791.34;;;2.46;77.46
72465;BME280;60471;52.150;4.508;2023-03-01T07:23:39;102782.28;;;2.75;77.37
72465;BME280;60471;52.150;4.508;2023-03-01T07:26:05;102785.03;;;2.84;76.35
72465;BME280;60471;52.150;4.508;2023-03-01T07:28:32;102787.50;;;2.74;76.45
72465;BME280;60471;52.150;4.508;2023-03-01T07:31:02;102783.47;;;2.96;76.22
72465;BME280;60471;52.150;4.508;2023-03-01T07:33:29;102787.97;;;3.06;76.03
72465;BME280;60471;52.150;4.508;2023-03-01T07:36:02;102789.72;;;3.07;76.75
72465;BME280;60471;52.150;4.508;2023-03-01T07:38:30;102788.00;;;3.07;76.51
72465;BME280;60471;52.150;4.508;2023-03-01T07:41:01;102790.78;;;3.21;75.47
72465;BME280;60471;52.150;4.508;2023-03-01T07:43:29;102787.47;;;3.34;75.92
72465;BME280;60471;52.150;4.508;2023-03-01T07:46:00;102786.81;;;3.49;75.81
72465;BME280;60471;52.150;4.508;2023-03-01T07:48:28;102790.31;;;3.51;75.23
72465;BME280;60471;52.150;4.508;2023-03-01T07:51:03;102786.81;;;3.49;76.02
72465;BME280;60471;52.150;4.508;2023-03-01T07:53:31;102797.28;;;3.51;75.56
72465;BME280;60471;52.150;4.508;2023-03-01T07:56:11;102792.31;;;3.72;75.46
72465;BME280;60471;52.150;4.508;2023-03-01T07:58:40;102793.25;;;3.78;75.44
72465;BME280;60471;52.150;4.508;2023-03-01T08:01:10;102785.53;;;3.88;75.55
72465;BME280;60471;52.150;4.508;2023-03-01T08:03:38;102785.72;;;4.04;75.08
72465;BME280;60471;52.150;4.508;2023-03-01T08:06:07;102787.50;;;4.10;75.61
72465;BME280;60471;52.150;4.508;2023-03-01T08:08:35;102789.34;;;4.19;75.37
72465;BME280;60471;52.150;4.508;2023-03-01T08:11:04;102786.81;;;4.29;76.03
72465;BME280;60471;52.150;4.508;2023-03-01T08:13:32;102785.19;;;4.44;75.44
72465;BME280;60471;52.150;4.508;2023-03-01T08:16:14;102788.75;;;4.52;75.18
72465;BME280;60471;52.150;4.508;2023-03-01T08:18:42;102782.66;;;4.53;75.46
72465;BME280;60471;52.150;4.508;2023-03-01T08:21:13;102781.94;;;4.69;75.78
72465;BME280;60471;52.150;4.508;2023-03-01T08:23:42;102783.03;;;5.02;75.76
72465;BME280;60471;52.150;4.508;2023-03-01T08:26:16;102773.53;;;5.14;74.93
72465;BME280;60471;52.150;4.508;2023-03-01T08:28:45;102778.03;;;5.49;74.37
72465;BME280;60471;52.150;4.508;2023-03-01T08:31:24;102771.09;;;5.54;72.30
72465;BME280;60471;52.150;4.508;2023-03-01T08:33:55;102765.91;;;5.66;72.83
72465;BME280;60471;52.150;4.508;2023-03-01T08:36:25;102768.50;;;5.59;72.09
72465;BME280;60471;52.150;4.508;2023-03-01T08:38:54;102766.75;;;5.56;71.45
72465;BME280;60471;52.150;4.508;2023-03-01T08:41:20;102766.75;;;5.58;71.81
72465;BME280;60471;52.150;4.508;2023-03-01T08:43:47;102771.97;;;5.64;71.80
72465;BME280;60471;52.150;4.508;2023-03-01T08:46:13;102764.13;;;5.59;70.83
72465;BME280;60471;52.150;4.508;2023-03-01T08:48:39;102767.63;;;5.63;70.29
72465;BME280;60471;52.150;4.508;2023-03-01T08:51:11;102764.09;;;5.47;70.71
72465;BME280;60471;52.150;4.508;2023-03-01T08:53:42;102769.41;;;5.68;70.40
72465;BME280;60471;52.150;4.508;2023-03-01T08:56:09;102775.44;;;5.47;70.39
72465;BME280;60471;52.150;4.508;2023-03-01T08:58:37;102770.25;;;5.60;70.32
72465;BME280;60471;52.150;4.508;2023-03-01T09:01:13;102767.72;;;5.87;70.49
72465;BME280;60471;52.150;4.508;2023-03-01T09:03:41;102771.31;;;6.21;69.44
72465;BME280;60471;52.150;4.508;2023-03-01T09:06:08;102771.28;;;6.10;68.00
72465;BME280;60471;52.150;4.508;2023-03-01T09:08:40;102766.91;;;5.97;68.59
72465;BME280;60471;52.150;4.508;2023-03-01T09:11:10;102773.84;;;5.88;68.79
72465;BME280;60471;52.150;4.508;2023-03-01T09:13:38;102772.16;;;6.09;68.77
72465;BME280;60471;52.150;4.508;2023-03-01T09:16:07;102771.28;;;6.01;68.65
72465;BME280;60471;52.150;4.508;2023-03-01T09:18:35;102767.81;;;6.27;68.95
72465;BME280;60471;52.150;4.508;2023-03-01T09:23:41;102755.53;;;6.88;67.33
72465;BME280;60471;52.150;4.508;2023-03-01T09:26:10;102758.19;;;6.85;66.74
72465;BME280;60471;52.150;4.508;2023-03-01T09:28:39;102754.53;;;7.32;65.88
72465;BME280;60471;52.150;4.508;2023-03-01T09:31:06;102750.88;;;7.68;64.81
72465;BME280;60471;52.150;4.508;2023-03-01T09:33:33;102748.38;;;7.41;64.13
72465;BME280;60471;52.150;4.508;2023-03-01T09:36:02;102756.25;;;7.45;64.65
72465;BME280;60471;52.150;4.508;2023-03-01T09:38:31;102744.84;;;7.48;64.67
72465;BME280;60471;52.150;4.508;2023-03-01T09:40:57;102739.56;;;7.55;64.41
72465;BME280;60471;52.150;4.508;2023-03-01T09:43:44;102746.31;;;7.98;63.17
72465;BME280;60471;52.150;4.508;2023-03-01T09:46:22;102738.09;;;8.45;61.98
72465;BME280;60471;52.150;4.508;2023-03-01T09:49:04;102741.16;;;8.93;60.27
72465;BME280;60471;52.150;4.508;2023-03-01T09:54:24;102723.41;;;11.30;52.90
72465;BME280;60471;52.150;4.508;2023-03-01T09:57:06;102726.34;;;11.99;49.75
72465;BME280;60471;52.150;4.508;2023-03-01T10:03:31;102724.19;;;13.15;47.00
72465;BME280;60471;52.150;4.508;2023-03-01T10:08:58;102723.53;;;12.06;49.49
72465;BME280;60471;52.150;4.508;2023-03-01T10:11:32;102724.25;;;12.11;49.40
72465;BME280;60471;52.150;4.508;2023-03-01T10:19:45;102713.59;;;12.50;45.41
72465;BME280;60471;52.150;4.508;2023-03-01T10:22:18;102710.53;;;12.31;45.72
72465;BME280;60471;52.150;4.508;2023-03-01T10:24:56;102710.66;;;13.26;44.05
72465;BME280;60471;52.150;4.508;2023-03-01T10:27:30;102701.84;;;13.53;43.68
72465;BME280;60471;52.150;4.508;2023-03-01T10:32:48;102698.06;;;13.90;43.91
72465;BME280;60471;52.150;4.508;2023-03-01T10:35:29;102694.25;;;13.71;45.38
72465;BME280;60471;52.150;4.508;2023-03-01T10:38:04;102684.41;;;14.02;42.92
72465;BME280;60471;52.150;4.508;2023-03-01T10:40:34;102675.81;;;14.20;42.21
72465;BME280;60471;52.150;4.508;2023-03-01T10:43:04;102676.91;;;14.91;40.52
72465;BME280;60471;52.150;4.508;2023-03-01T10:45:36;102672.06;;;15.26;39.34
72465;BME280;60471;52.150;4.508;2023-03-01T10:50:47;102669.78;;;15.62;39.17
72465;BME280;60471;52.150;4.508;2023-03-01T10:53:48;102655.31;;;16.74;37.05
72465;BME280;60471;52.150;4.508;2023-03-01T10:56:16;102653.78;;;17.07;36.97
72465;BME280;60471;52.150;4.508;2023-03-01T10:59:04;102655.72;;;17.42;35.88
72465;BME280;60471;52.150;4.508;2023-03-01T11:01:35;102656.41;;;18.36;34.60
72465;BME280;60471;52.150;4.508;2023-03-01T11:06:34;102644.75;;;19.52;32.18
72465;BME280;60471;52.150;4.508;2023-03-01T11:09:22;102647.34;;;20.15;30.88
72465;BME280;60471;52.150;4.508;2023-03-01T11:11:57;102653.03;;;21.26;29.75
72465;BME280;60471;52.150;4.508;2023-03-01T11:14:53;102644.66;;;22.26;27.96
72465;BME280;60471;52.150;4.508;2023-03-01T11:17:24;102638.31;;;22.27;27.55
72465;BME280;60471;52.150;4.508;2023-03-01T11:22:47;102629.28;;;23.78;25.29
72465;BME280;60471;52.150;4.508;2023-03-01T11:25:26;102615.03;;;23.15;25.16
72465;BME280;60471;52.150;4.508;2023-03-01T11:27:58;102610.47;;;22.92;25.06
72465;BME280;60471;52.150;4.508;2023-03-01T11:33:41;102603.00;;;23.32;23.59
72465;BME280;60471;52.150;4.508;2023-03-01T11:36:16;102596.75;;;22.95;23.83
72465;BME280;60471;52.150;4.508;2023-03-01T11:38:45;102595.41;;;21.98;23.92
72465;BME280;60471;52.150;4.508;2023-03-01T11:41:16;102585.47;;;23.26;22.80
72465;BME280;60471;52.150;4.508;2023-03-01T11:55:32;102573.22;;;20.87;23.48
72465;BME280;60471;52.150;4.508;2023-03-01T12:07:00;102555.09;;;21.98;20.46
72465;BME280;60471;52.150;4.508;2023-03-01T12:09:41;102555.78;;;21.62;20.98
72465;BME280;60471;52.150;4.508;2023-03-01T12:12:37;102560.53;;;24.85;18.56
72465;BME280;60471;52.150;4.508;2023-03-01T12:18:28;102536.75;;;23.29;18.74
72465;BME280;60471;52.150;4.508;2023-03-01T12:24:35;102522.41;;;24.45;17.88
72465;BME280;60471;52.150;4.508;2023-03-01T12:27:14;102526.00;;;23.88;19.39
72465;BME280;60471;52.150;4.508;2023-03-01T12:30:37;102520.88;;;24.08;18.92
72465;BME280;60471;52.150;4.508;2023-03-01T12:40:13;102506.66;;;24.73;18.35
72465;BME280;60471;52.150;4.508;2023-03-01T12:43:02;102516.19;;;23.04;19.55
72465;BME280;60471;52.150;4.508;2023-03-01T12:45:59;102520.50;;;20.86;22.42
72465;BME280;60471;52.150;4.508;2023-03-01T12:51:06;102522.06;;;23.57;19.98
72465;BME280;60471;52.150;4.508;2023-03-01T12:53:40;102515.66;;;26.01;17.55
72465;BME280;60471;52.150;4.508;2023-03-01T12:56:17;102502.53;;;25.55;17.44
72465;BME280;60471;52.150;4.508;2023-03-01T13:02:15;102500.50;;;25.36;17.58
72465;BME280;60471;52.150;4.508;2023-03-01T13:07:35;102495.47;;;27.36;15.43
72465;BME280;60471;52.150;4.508;2023-03-01T13:10:19;102494.03;;;27.70;15.44
72465;BME280;60471;52.150;4.508;2023-03-01T13:13:01;102489.31;;;26.55;16.28
72465;BME280;60471;52.150;4.508;2023-03-01T13:15:37;102480.28;;;26.85;16.47
72465;BME280;60471;52.150;4.508;2023-03-01T13:28:50;102480.63;;;25.58;17.27
72465;BME280;60471;52.150;4.508;2023-03-01T13:39:04;102447.00;;;28.81;14.78
72465;BME280;60471;52.150;4.508;2023-03-01T13:41:52;102450.06;;;28.51;15.03
72465;BME280;60471;52.150;4.508;2023-03-01T13:46:53;102444.97;;;28.38;15.46
72465;BME280;60471;52.150;4.508;2023-03-01T13:49:28;102438.44;;;28.76;14.96
72465;BME280;60471;52.150;4.508;2023-03-01T13:51:58;102441.50;;;28.09;15.16
72465;BME280;60471;52.150;4.508;2023-03-01T13:54:32;102433.22;;;24.58;17.98
72465;BME280;60471;52.150;4.508;2023-03-01T13:57:00;102433.34;;;25.32;17.44
72465;BME280;60471;52.150;4.508;2023-03-01T13:59:27;102427.97;;;27.33;15.62
72465;BME280;60471;52.150;4.508;2023-03-01T14:01:58;102415.13;;;26.96;15.85
72465;BME280;60471;52.150;4.508;2023-03-01T14:09:51;102410.06;;;23.07;19.66
72465;BME280;60471;52.150;4.508;2023-03-01T14:12:58;102399.38;;;25.81;17.36
72465;BME280;60471;52.150;4.508;2023-03-01T14:16:09;102401.00;;;26.93;16.06
72465;BME280;60471;52.150;4.508;2023-03-01T14:21:39;102390.84;;;28.54;14.78
72465;BME280;60471;52.150;4.508;2023-03-01T14:24:06;102398.53;;;27.57;15.52
72465;BME280;60471;52.150;4.508;2023-03-01T14:26:41;102385.28;;;26.67;15.56
72465;BME280;60471;52.150;4.508;2023-03-01T14:29:41;102378.72;;;26.50;16.37
72465;BME280;60471;52.150;4.508;2023-03-01T14:34:48;102375.34;;;26.97;15.94
72465;BME280;60471;52.150;4.508;2023-03-01T14:39:49;102375.63;;;26.94;16.35
72465;BME280;60471;52.150;4.508;2023-03-01T14:42:16;102365.19;;;24.75;17.94
72465;BME280;60471;52.150;4.508;2023-03-01T14:44:47;102365.38;;;24.29;18.61
72465;BME280;60471;52.150;4.508;2023-03-01T14:47:27;102371.91;;;23.13;19.55
72465;BME280;60471;52.150;4.508;2023-03-01T14:50:05;102361.38;;;22.38;20.54
72465;BME280;60471;52.150;4.508;2023-03-01T14:52:40;102353.13;;;23.47;19.54
72465;BME280;60471;52.150;4.508;2023-03-01T14:55:17;102351.03;;;22.93;20.02
72465;BME280;60471;52.150;4.508;2023-03-01T14:57:50;102339.59;;;24.58;18.58
72465;BME280;60471;52.150;4.508;2023-03-01T15:00:28;102333.53;;;24.98;17.96
72465;BME280;60471;52.150;4.508;2023-03-01T15:03:00;102341.03;;;21.85;20.70
72465;BME280;60471;52.150;4.508;2023-03-01T15:05:35;102330.69;;;22.17;21.01
72465;BME280;60471;52.150;4.508;2023-03-01T15:08:03;102339.31;;;23.96;19.53
72465;BME280;60471;52.150;4.508;2023-03-01T15:10:36;102333.75;;;23.41;19.62
72465;BME280;60471;52.150;4.508;2023-03-01T15:13:23;102338.94;;;24.23;18.70
72465;BME280;60471;52.150;4.508;2023-03-01T15:15:53;102344.19;;;21.28;21.82
72465;BME280;60471;52.150;4.508;2023-03-01T15:18:29;102340.53;;;22.53;20.87
72465;BME280;60471;52.150;4.508;2023-03-01T15:21:06;102346.78;;;23.01;20.09
72465;BME280;60471;52.150;4.508;2023-03-01T15:23:36;102342.47;;;23.45;19.03